createdAt,value
2023-05-03T05:08:00.541Z,70.92
2023-05-03T05:16:11.493Z,69.14
2023-05-03T05:24:27.747Z,70.69
2023-05-03T05:26:55.476Z,70.73
2023-05-03T05:32:54.192Z,68.91
2023-05-03T05:35:21.752Z,69.60
2023-05-03T05:37:49.334Z,69.68
2023-05-03T05:40:16.815Z,68.78
2023-05-03T05:42:46.307Z,68.75
2023-05-03T05:45:13.851Z,68.07
2023-05-03T05:47:41.521Z,67.61
2023-05-03T05:50:17.748Z,67.78
2023-05-03T05:52:45.982Z,67.42
2023-05-03T05:55:14.860Z,66.72
2023-05-03T05:57:42.372Z,67.14
2023-05-03T06:00:14.596Z,66.33
2023-05-03T06:02:42.839Z,66.20
2023-05-03T06:05:12.038Z,66.50
2023-05-03T06:07:39.539Z,66.17
2023-05-03T06:10:08.057Z,66.53
2023-05-03T06:12:36.768Z,66.32
2023-05-03T06:15:06.190Z,66.35
2023-05-03T06:17:34.945Z,66.36
2023-05-03T06:20:04.887Z,66.12
2023-05-03T06:22:32.665Z,65.98
2023-05-03T06:25:00.438Z,65.53
2023-05-03T06:27:27.879Z,65.87
2023-05-03T06:29:55.383Z,65.48
2023-05-03T06:32:23.616Z,65.11
2023-05-03T06:34:51.259Z,65.33
2023-05-03T06:37:18.744Z,65.04
2023-05-03T06:39:46.332Z,65.44
2023-05-03T06:42:14.002Z,65.59
2023-05-03T06:44:42.565Z,65.31
2023-05-03T06:47:10.092Z,64.53
2023-05-03T06:49:37.740Z,64.93
2023-05-03T06:52:05.626Z,64.84
2023-05-03T06:54:33.120Z,65.01
2023-05-03T06:57:01.887Z,65.16
2023-05-03T06:59:29.437Z,65.24
2023-05-03T07:01:57.032Z,64.75
2023-05-03T07:04:29.672Z,63.56
2023-05-03T07:06:57.711Z,63.61
2023-05-03T07:09:41.577Z,63.86
2023-05-03T07:12:10.941Z,63.59
2023-05-03T07:14:40.726Z,63.26
2023-05-03T07:17:09.498Z,63.92
2023-05-03T07:19:37.657Z,64.05
2023-05-03T07:22:05.627Z,63.43
2023-05-03T07:24:33.228Z,63.03
2023-05-03T07:27:00.711Z,63.36
2023-05-03T07:29:28.117Z,63.34
2023-05-03T07:31:55.850Z,62.95
2023-05-03T07:34:23.341Z,63.50
2023-05-03T07:36:52.112Z,63.27
2023-05-03T07:39:19.886Z,63.83
2023-05-03T07:41:47.402Z,63.60
2023-05-03T07:44:14.806Z,63.37
2023-05-03T07:46:42.325Z,63.71
2023-05-03T07:49:09.741Z,63.60
2023-05-03T07:51:41.220Z,63.89
2023-05-03T07:54:08.892Z,63.66
2023-05-03T07:56:36.588Z,63.63
2023-05-03T07:59:09.979Z,63.69
2023-05-03T08:01:38.565Z,63.63
2023-05-03T08:04:06.588Z,63.46
2023-05-03T08:06:35.999Z,63.76
2023-05-03T08:09:04.775Z,63.00
2023-05-03T08:11:32.782Z,63.22
2023-05-03T08:14:00.224Z,62.68
2023-05-03T08:16:27.978Z,62.47
2023-05-03T08:18:55.578Z,62.85
2023-05-03T08:21:24.861Z,62.50
2023-05-03T08:23:52.871Z,62.12
2023-05-03T08:26:22.317Z,61.95
2023-05-03T08:28:50.084Z,61.24
2023-05-03T08:31:17.851Z,61.63
2023-05-03T08:33:45.800Z,61.19
2023-05-03T08:36:13.288Z,61.12
2023-05-03T08:38:41.365Z,61.04
2023-05-03T08:41:31.171Z,60.67
2023-05-03T08:44:01.490Z,60.67
2023-05-03T08:46:29.577Z,60.78
2023-05-03T08:48:58.882Z,60.35
2023-05-03T08:51:27.766Z,60.15
2023-05-03T08:53:55.208Z,61.20
2023-05-03T08:56:43.917Z,60.73
2023-05-03T08:59:11.817Z,59.96
2023-05-03T09:01:42.013Z,59.98
2023-05-03T09:04:12.440Z,60.06
2023-05-03T09:06:40.360Z,59.73
2023-05-03T09:09:08.950Z,59.96
2023-05-03T09:11:39.381Z,60.09
2023-05-03T09:14:18.794Z,60.35
2023-05-03T09:16:47.606Z,59.93
2023-05-03T09:19:16.778Z,59.48
2023-05-03T09:21:47.580Z,60.15
2023-05-03T09:24:22.103Z,60.28
2023-05-03T09:26:52.880Z,60.12
2023-05-03T09:29:36.179Z,59.74
2023-05-03T09:32:06.422Z,59.61
2023-05-03T09:34:38.391Z,60.09
2023-05-03T09:37:06.829Z,60.48
2023-05-03T09:39:36.968Z,59.83
2023-05-03T09:42:19.285Z,59.90
2023-05-03T09:44:53.935Z,59.59
2023-05-03T09:47:21.841Z,59.55
2023-05-03T09:49:49.377Z,59.52
2023-05-03T09:52:17.860Z,58.22
2023-05-03T09:54:46.036Z,57.37
2023-05-03T09:57:15.145Z,57.74
2023-05-03T09:59:45.164Z,57.28
2023-05-03T10:02:12.752Z,56.71
2023-05-03T10:04:51.977Z,56.05
2023-05-03T10:07:21.872Z,55.47
2023-05-03T10:09:49.860Z,56.27
2023-05-03T10:12:17.980Z,54.78
2023-05-03T10:14:51.980Z,54.47
2023-05-03T10:17:47.805Z,54.18
2023-05-03T10:20:43.940Z,53.57
2023-05-03T10:23:13.959Z,53.68
2023-05-03T10:26:07.382Z,51.97
2023-05-03T10:28:39.865Z,52.11
2023-05-03T10:31:27.255Z,52.63
2023-05-03T10:33:54.772Z,51.71
2023-05-03T10:36:23.561Z,51.59
2023-05-03T10:38:53.822Z,51.24
2023-05-03T10:41:27.421Z,50.66
2023-05-03T10:43:54.864Z,50.06
2023-05-03T10:46:34.489Z,48.90
2023-05-03T10:49:37.563Z,50.02
2023-05-03T10:52:35.991Z,50.26
2023-05-03T10:55:13.147Z,49.18
2023-05-03T10:57:46.927Z,50.01
2023-05-03T11:00:40.580Z,49.44
2023-05-03T11:04:03.184Z,48.38
2023-05-03T11:06:36.663Z,47.55
2023-05-03T11:09:08.318Z,48.35
2023-05-03T11:11:41.194Z,48.28
2023-05-03T11:14:11.666Z,48.31
2023-05-03T11:16:47.731Z,47.47
2023-05-03T11:19:16.542Z,47.13
2023-05-03T11:21:46.404Z,46.95
2023-05-03T11:24:14.436Z,45.57
2023-05-03T11:26:42.283Z,46.00
2023-05-03T11:29:11.928Z,46.01
2023-05-03T11:31:43.302Z,45.45
2023-05-03T11:34:15.833Z,45.59
2023-05-03T11:36:43.500Z,45.19
2023-05-03T11:39:14.549Z,44.26
2023-05-03T11:41:42.424Z,44.19
2023-05-03T11:44:17.316Z,42.71
2023-05-03T11:46:47.512Z,42.12
2023-05-03T11:49:19.595Z,43.75
2023-05-03T11:51:50.946Z,43.07
2023-05-03T11:54:26.397Z,42.84
2023-05-03T11:56:59.861Z,42.54
2023-05-03T11:59:40.889Z,41.69
2023-05-03T12:02:15.234Z,40.51
2023-05-03T12:04:45.485Z,40.84
2023-05-03T12:07:16.902Z,40.41
2023-05-03T12:09:52.696Z,40.36
2023-05-03T12:12:31.860Z,40.58
2023-05-03T12:15:04.579Z,39.24
2023-05-03T12:17:43.515Z,39.03
2023-05-03T12:23:04.201Z,39.16
2023-05-03T12:25:34.876Z,38.10
2023-05-03T12:28:19.668Z,38.28
2023-05-03T12:30:48.329Z,37.22
2023-05-03T12:33:17.055Z,38.36
2023-05-03T12:35:47.800Z,37.54
2023-05-03T12:38:17.385Z,37.50
2023-05-03T12:40:47.497Z,37.23
2023-05-03T12:43:15.421Z,37.42
2023-05-03T12:45:46.873Z,36.27
2023-05-03T12:48:20.192Z,36.21
2023-05-03T12:50:51.481Z,35.62
2023-05-03T12:53:19.580Z,35.63
2023-05-03T12:55:51.701Z,34.54
2023-05-03T13:01:15.911Z,34.39
2023-05-03T13:03:43.758Z,34.28
2023-05-03T13:06:14.675Z,34.40
2023-05-03T13:11:13.205Z,32.95
2023-05-03T13:13:40.908Z,33.14
2023-05-03T13:16:09.777Z,33.36
2023-05-03T13:18:37.607Z,33.41
2023-05-03T13:21:06.601Z,32.19
2023-05-03T13:23:34.521Z,31.70
2023-05-03T13:26:01.957Z,32.32
2023-05-03T13:28:29.510Z,30.38
2023-05-03T13:30:57.249Z,31.23
2023-05-03T13:33:24.802Z,29.37
2023-05-03T13:35:52.339Z,31.67
2023-05-03T13:38:19.725Z,30.96
2023-05-03T13:40:47.327Z,31.32
2023-05-03T13:43:14.774Z,29.80
2023-05-03T13:45:42.297Z,29.65
2023-05-03T13:48:14.812Z,29.45
2023-05-03T13:50:45.746Z,29.36
2023-05-03T13:53:13.257Z,23.62
2023-05-03T13:55:40.749Z,23.37
2023-05-03T13:58:08.758Z,24.72
2023-05-03T14:00:36.265Z,23.31
2023-05-03T14:03:04.543Z,22.47
2023-05-03T14:05:32.146Z,22.34
2023-05-03T14:07:59.722Z,21.65
2023-05-03T14:10:28.131Z,21.47
2023-05-03T14:12:58.037Z,22.75
2023-05-03T14:15:25.872Z,20.85
2023-05-03T14:17:55.263Z,21.73
2023-05-03T14:20:24.825Z,21.40
2023-05-03T14:22:52.430Z,21.07
2023-05-03T14:25:19.942Z,21.47
2023-05-03T14:27:47.435Z,21.28
2023-05-03T14:30:15.697Z,21.63
2023-05-03T14:32:43.373Z,21.08
2023-05-03T14:35:11.028Z,20.44
2023-05-03T14:37:38.606Z,20.61
2023-05-03T14:40:09.941Z,20.07
2023-05-03T14:42:37.396Z,20.97
2023-05-03T14:45:08.696Z,20.41
2023-05-03T14:47:39.040Z,20.59
2023-05-03T14:50:07.957Z,20.35
2023-05-03T14:52:36.329Z,20.61
2023-05-03T14:55:06.921Z,21.11
2023-05-03T14:57:34.684Z,20.80
2023-05-03T15:00:07.577Z,21.78
2023-05-03T15:02:35.599Z,21.37
2023-05-03T15:05:04.622Z,21.15
2023-05-03T15:07:32.661Z,21.41
2023-05-03T15:10:04.282Z,20.60
2023-05-03T15:12:32.925Z,20.67
2023-05-03T15:15:00.766Z,21.76
2023-05-03T15:17:28.238Z,20.54
2023-05-03T15:19:55.722Z,20.44
2023-05-03T15:22:23.159Z,21.08
2023-05-03T15:24:51.003Z,20.56
2023-05-03T15:27:18.477Z,19.73
2023-05-03T15:29:46.519Z,21.09
2023-05-03T15:32:14.245Z,20.45
2023-05-03T15:34:41.874Z,22.08
2023-05-03T15:37:12.369Z,21.37
2023-05-03T15:39:40.082Z,20.82
2023-05-03T15:42:07.561Z,21.24
2023-05-03T15:44:34.975Z,21.28
2023-05-03T15:47:02.748Z,20.47
2023-05-03T15:49:30.255Z,20.50
2023-05-03T15:51:58.174Z,20.79
2023-05-03T15:54:25.658Z,21.37
2023-05-03T15:56:53.378Z,21.28
2023-05-03T15:59:20.925Z,21.19
2023-05-03T16:01:48.694Z,22.21
2023-05-03T16:04:16.189Z,21.96
2023-05-03T16:06:43.670Z,21.63
2023-05-03T16:09:12.582Z,21.43
2023-05-03T16:11:40.151Z,21.95
2023-05-03T16:14:09.659Z,22.74
2023-05-03T16:16:39.229Z,22.57
2023-05-03T16:19:09.091Z,23.06
2023-05-03T16:21:36.620Z,23.24
2023-05-03T16:24:04.900Z,22.85
2023-05-03T16:26:34.574Z,23.69
2023-05-03T16:29:02.189Z,23.99
2023-05-03T16:31:33.149Z,24.27
2023-05-03T16:34:01.104Z,24.98
2023-05-03T16:36:28.636Z,24.71
2023-05-03T16:38:56.050Z,25.31
2023-05-03T16:41:24.366Z,25.15
2023-05-03T16:43:52.051Z,25.24
2023-05-03T16:46:20.442Z,25.68
2023-05-03T16:48:48.277Z,25.99
2023-05-03T16:51:21.302Z,26.20
2023-05-03T16:53:49.564Z,25.58
2023-05-03T16:56:17.078Z,26.17
2023-05-03T16:58:44.617Z,25.86
2023-05-03T17:01:12.283Z,25.80
2023-05-03T17:03:40.547Z,25.78
2023-05-03T17:06:08.500Z,25.92
2023-05-03T17:08:36.151Z,26.37
2023-05-03T17:11:14.747Z,26.88
2023-05-03T17:13:42.660Z,26.87
2023-05-03T17:16:15.298Z,26.94
2023-05-03T17:18:43.232Z,27.04
2023-05-03T17:21:11.706Z,27.30
2023-05-03T17:23:40.033Z,27.15
2023-05-03T17:26:12.380Z,27.12
2023-05-03T17:28:40.664Z,27.53
2023-05-03T17:31:08.547Z,28.12
2023-05-03T17:33:36.784Z,28.13
2023-05-03T17:36:05.111Z,28.32
2023-05-03T17:38:34.664Z,28.61
2023-05-03T17:41:08.666Z,28.81
2023-05-03T17:43:37.965Z,29.22
2023-05-03T17:46:12.736Z,29.62
2023-05-03T17:48:44.234Z,29.29
2023-05-03T17:51:14.679Z,29.76
2023-05-03T17:53:43.184Z,29.90
2023-05-03T17:56:28.999Z,30.29
2023-05-03T17:58:56.872Z,30.55
2023-05-03T18:01:25.836Z,30.35
2023-05-03T18:03:53.478Z,30.51
2023-05-03T18:06:21.352Z,30.42
2023-05-03T18:08:48.870Z,30.43
2023-05-03T18:11:16.404Z,30.99
2023-05-03T18:13:45.026Z,30.85
2023-05-03T18:16:12.470Z,30.84
2023-05-03T18:18:39.999Z,31.02
2023-05-03T18:21:07.482Z,31.11
2023-05-03T18:23:35.408Z,31.65
2023-05-03T18:26:03.918Z,31.77
2023-05-03T18:28:31.392Z,32.03
2023-05-03T18:30:59.140Z,32.36
2023-05-03T18:33:26.635Z,32.63
2023-05-03T18:35:54.335Z,32.67
2023-05-03T18:38:22.020Z,33.12
2023-05-03T18:40:50.258Z,33.54
2023-05-03T18:43:17.828Z,33.83
2023-05-03T18:45:45.767Z,33.71
2023-05-03T18:48:13.312Z,34.25
2023-05-03T18:50:43.180Z,34.41
2023-05-03T18:53:10.942Z,35.36
2023-05-03T18:55:38.462Z,35.54
2023-05-03T18:58:05.911Z,35.82
2023-05-03T19:00:33.482Z,35.26
2023-05-03T19:03:01.473Z,35.77
2023-05-03T19:05:29.050Z,36.02
2023-05-03T19:07:56.521Z,35.85
2023-05-03T19:10:25.304Z,36.12
2023-05-03T19:12:53.607Z,36.27
2023-05-03T19:15:21.321Z,36.37
2023-05-03T19:17:48.767Z,36.97
2023-05-03T19:20:17.581Z,37.04
2023-05-03T19:22:45.196Z,37.50
2023-05-03T19:25:12.746Z,37.65
2023-05-03T19:27:40.230Z,37.80
2023-05-03T19:30:09.643Z,37.59
2023-05-03T19:32:39.212Z,37.76
2023-05-03T19:35:10.494Z,37.63
2023-05-03T19:37:39.071Z,37.81
2023-05-03T19:40:07.927Z,38.11
2023-05-03T19:42:35.562Z,38.48
2023-05-03T19:45:04.914Z,38.19
2023-05-03T19:47:33.822Z,38.56
2023-05-03T19:50:01.621Z,38.65
2023-05-03T19:52:29.305Z,39.05
2023-05-03T19:54:57.828Z,38.87
2023-05-03T19:57:25.853Z,39.54
2023-05-03T19:59:55.917Z,39.01
2023-05-03T20:02:25.026Z,39.07
2023-05-03T20:04:52.879Z,38.94
2023-05-03T20:07:20.555Z,39.29
2023-05-03T20:09:48.066Z,39.80
2023-05-03T20:12:15.611Z,40.09
2023-05-03T20:14:43.123Z,40.13
2023-05-03T20:17:10.524Z,40.28
2023-05-03T20:19:38.659Z,40.45
2023-05-03T20:22:06.196Z,40.55
2023-05-03T20:24:34.126Z,40.41
2023-05-03T20:27:02.688Z,40.18
2023-05-03T20:29:30.266Z,40.72
2023-05-03T20:31:57.873Z,40.71
2023-05-03T20:34:25.444Z,41.13
2023-05-03T20:36:52.946Z,40.90
2023-05-03T20:39:20.491Z,41.19
2023-05-03T20:41:47.879Z,41.38
2023-05-03T20:44:15.377Z,41.20
2023-05-03T20:46:42.826Z,41.66
2023-05-03T20:49:10.796Z,41.56
2023-05-03T20:51:38.288Z,41.58
2023-05-03T20:54:05.887Z,41.85
2023-05-03T20:56:33.830Z,41.98
2023-05-03T20:59:03.471Z,42.46
2023-05-03T21:01:31.923Z,42.73
2023-05-03T21:03:59.481Z,43.03
2023-05-03T21:06:27.844Z,42.80
2023-05-03T21:08:55.240Z,42.93
2023-05-03T21:11:22.714Z,43.35
2023-05-03T21:13:50.234Z,44.00
2023-05-03T21:16:17.793Z,43.95
2023-05-03T21:18:45.433Z,44.50
2023-05-03T21:21:12.978Z,44.70
2023-05-03T21:23:40.525Z,44.20
2023-05-03T21:26:08.046Z,44.33
2023-05-03T21:28:35.725Z,44.80
2023-05-03T21:31:03.152Z,44.76
2023-05-03T21:33:30.530Z,45.13
2023-05-03T21:35:58.161Z,45.06
2023-05-03T21:38:25.698Z,44.93
2023-05-03T21:40:53.166Z,45.31
2023-05-03T21:43:20.621Z,44.80
2023-05-03T21:45:48.985Z,44.97
2023-05-03T21:48:16.454Z,45.41
2023-05-03T21:50:44.750Z,45.41
2023-05-03T21:53:12.357Z,45.84
2023-05-03T21:55:39.831Z,45.77
2023-05-03T21:58:07.281Z,45.80
2023-05-03T22:00:36.270Z,45.73
2023-05-03T22:03:04.053Z,46.21
2023-05-03T22:05:31.806Z,46.19
2023-05-03T22:08:00.190Z,45.98
2023-05-03T22:10:28.025Z,46.07
2023-05-03T22:12:55.556Z,46.22
2023-05-03T22:15:23.052Z,46.59
2023-05-03T22:17:50.856Z,46.49
2023-05-03T22:20:18.411Z,46.37
2023-05-03T22:22:45.848Z,47.50
2023-05-03T22:25:27.803Z,47.03
2023-05-03T22:27:56.527Z,46.72
2023-05-03T22:30:24.606Z,46.93
2023-05-03T22:32:52.178Z,46.93
2023-05-03T22:35:19.942Z,46.71
2023-05-03T22:37:47.512Z,47.04
2023-05-03T22:40:14.970Z,46.67
2023-05-03T22:42:42.483Z,47.47
2023-05-03T22:45:10.686Z,47.53
2023-05-03T22:47:38.249Z,47.47
2023-05-03T22:50:07.685Z,47.47
2023-05-03T22:52:35.079Z,47.84
2023-05-03T22:55:04.278Z,47.33
2023-05-03T22:57:32.293Z,47.18
2023-05-03T22:59:59.921Z,48.02
2023-05-03T23:02:27.592Z,47.63
2023-05-03T23:04:55.160Z,48.33
2023-05-03T23:07:22.598Z,48.39
2023-05-03T23:09:50.095Z,47.71
2023-05-03T23:12:17.569Z,48.16
2023-05-03T23:14:46.132Z,47.82
2023-05-03T23:17:13.868Z,48.26
2023-05-03T23:19:41.747Z,48.28
2023-05-03T23:22:09.716Z,47.96
2023-05-03T23:24:37.201Z,48.49
2023-05-03T23:27:04.629Z,48.21
2023-05-03T23:29:32.547Z,48.76
2023-05-03T23:32:00.886Z,49.51
2023-05-03T23:34:28.675Z,48.89
2023-05-03T23:36:56.232Z,49.01
2023-05-03T23:39:23.904Z,48.76
2023-05-03T23:41:51.396Z,48.69
2023-05-03T23:44:18.918Z,49.05
2023-05-03T23:46:46.349Z,49.34
2023-05-03T23:49:13.830Z,49.56
2023-05-03T23:51:41.299Z,49.57
2023-05-03T23:54:08.712Z,50.38
2023-05-03T23:56:36.240Z,50.17
2023-05-03T23:59:03.981Z,49.72
